sensor_id;sensor_type;location;lat;lon;timestamp;pressure;altitude;pressure_sealevel;temperature;humidity
14067;BME280;7108;42.684;23.350;2024-02-21T00:01:37;96049.31;;;5.99;100.00
14067;BME280;7108;42.684;23.350;2024-02-21T00:04:02;96031.50;;;5.86;100.00
14067;BME280;7108;42.684;23.350;2024-02-21T00:06:28;96053.88;;;5.98;100.00
14067;BME280;7108;42.684;23.350;2024-02-21T00:08:53;96036.38;;;5.92;100.00
14067;BME280;7108;42.684;23.350;2024-02-21T00:11:21;96049.53;;;6.11;100.00
14067;BME280;7108;42.684;23.350;2024-02-21T00:13:47;96056.63;;;6.15;100.00
14067;BME280;7108;42.684;23.350;2024-02-21T00:16:12;96035.78;;;5.95;100.00
14067;BME280;7108;42.684;23.350;2024-02-21T00:18:40;96038.97;;;6.06;100.00
14067;BME280;7108;42.684;23.350;2024-02-21T00:21:06;96057.53;;;6.11;100.00
14067;BME280;7108;42.684;23.350;2024-02-21T00:23:31;96023.19;;;5.96;100.00
14067;BME280;7108;42.684;23.350;2024-02-21T00:25:57;96040.41;;;6.12;100.00
14067;BME280;7108;42.684;23.350;2024-02-21T00:28:22;96044.53;;;6.18;100.00
14067;BME280;7108;42.684;23.350;2024-02-21T00:30:47;96039.50;;;6.16;100.00
14067;BME280;7108;42.684;23.350;2024-02-21T00:33:16;96037.72;;;6.12;100.00
14067;BME280;7108;42.684;23.350;2024-02-21T00:35:42;96059.91;;;6.12;100.00
14067;BME280;7108;42.684;23.350;2024-02-21T00:38:07;96034.56;;;6.10;100.00
14067;BME280;7108;42.684;23.350;2024-02-21T00:40:33;96032.53;;;6.07;100.00
14067;BME280;7108;42.684;23.350;2024-02-21T00:42:59;96019.75;;;5.95;100.00
14067;BME280;7108;42.684;23.350;2024-02-21T00:45:24;96024.50;;;6.07;100.00
14067;BME280;7108;42.684;23.350;2024-02-21T00:47:49;96025.94;;;6.13;100.00
14067;BME280;7108;42.684;23.350;2024-02-21T00:50:15;96032.06;;;6.13;100.00
14067;BME280;7108;42.684;23.350;2024-02-21T00:52:40;96022.13;;;6.05;100.00
14067;BME280;7108;42.684;23.350;2024-02-21T00:55:06;95986.81;;;5.86;100.00
14067;BME280;7108;42.684;23.350;2024-02-21T00:57:35;96034.63;;;6.27;100.00
14067;BME280;7108;42.684;23.350;2024-02-21T01:00:01;96016.50;;;6.15;100.00
14067;BME280;7108;42.684;23.350;2024-02-21T01:02:27;96027.84;;;6.21;100.00
14067;BME280;7108;42.684;23.350;2024-02-21T01:04:52;96035.22;;;6.15;100.00
14067;BME280;7108;42.684;23.350;2024-02-21T01:07:18;95968.75;;;5.92;100.00
14067;BME280;7108;42.684;23.350;2024-02-21T01:09:45;96018.38;;;6.15;100.00
14067;BME280;7108;42.684;23.350;2024-02-21T01:12:11;96009.09;;;6.04;100.00
14067;BME280;7108;42.684;23.350;2024-02-21T01:14:40;95992.00;;;5.91;100.00
14067;BME280;7108;42.684;23.350;2024-02-21T01:17:05;96012.66;;;5.99;100.00
14067;BME280;7108;42.684;23.350;2024-02-21T01:19:31;96014.84;;;5.97;100.00
14067;BME280;7108;42.684;23.350;2024-02-21T01:21:57;95995.94;;;5.86;100.00
14067;BME280;7108;42.684;23.350;2024-02-21T01:24:25;95972.81;;;5.81;100.00
14067;BME280;7108;42.684;23.350;2024-02-21T01:26:50;95924.91;;;5.32;100.00
14067;BME280;7108;42.684;23.350;2024-02-21T01:29:16;95940.81;;;5.37;100.00
14067;BME280;7108;42.684;23.350;2024-02-21T01:31:41;95959.00;;;5.57;100.00
14067;BME280;7108;42.684;23.350;2024-02-21T01:34:07;96019.75;;;5.95;100.00
14067;BME280;7108;42.684;23.350;2024-02-21T01:36:35;95946.09;;;5.59;100.00
14067;BME280;7108;42.684;23.350;2024-02-21T01:39:06;95980.41;;;5.96;100.00
14067;BME280;7108;42.684;23.350;2024-02-21T01:41:35;95982.63;;;6.02;100.00
14067;BME280;7108;42.684;23.350;2024-02-21T01:44:00;95985.63;;;6.09;100.00
14067;BME280;7108;42.684;23.350;2024-02-21T01:46:31;95936.00;;;5.78;100.00
14067;BME280;7108;42.684;23.350;2024-02-21T01:48:59;95932.88;;;5.85;100.00
14067;BME280;7108;42.684;23.350;2024-02-21T01:51:26;95975.09;;;6.13;100.00
14067;BME280;7108;42.684;23.350;2024-02-21T01:53:53;95986.31;;;6.32;100.00
14067;BME280;7108;42.684;23.350;2024-02-21T01:56:20;95975.31;;;6.25;100.00
14067;BME280;7108;42.684;23.350;2024-02-21T01:58:48;95965.06;;;6.27;100.00
14067;BME280;7108;42.684;23.350;2024-02-21T02:01:14;95988.69;;;6.42;100.00
14067;BME280;7108;42.684;23.350;2024-02-21T02:03:40;95976.28;;;6.54;100.00
14067;BME280;7108;42.684;23.350;2024-02-21T02:06:06;95977.53;;;6.56;100.00
14067;BME280;7108;42.684;23.350;2024-02-21T02:08:32;95971.72;;;6.54;100.00
14067;BME280;7108;42.684;23.350;2024-02-21T02:10:57;95937.19;;;6.19;100.00
14067;BME280;7108;42.684;23.350;2024-02-21T02:13:23;95934.47;;;6.02;100.00
14067;BME280;7108;42.684;23.350;2024-02-21T02:15:52;95981.94;;;6.44;100.00
14067;BME280;7108;42.684;23.350;2024-02-21T02:18:19;95973.75;;;6.49;100.00
14067;BME280;7108;42.684;23.350;2024-02-21T02:20:44;95966.69;;;6.45;100.00
14067;BME280;7108;42.684;23.350;2024-02-21T02:23:29;95946.31;;;6.27;100.00
14067;BME280;7108;42.684;23.350;2024-02-21T02:25:55;95969.19;;;6.41;100.00
14067;BME280;7108;42.684;23.350;2024-02-21T02:28:23;95954.16;;;6.15;100.00
14067;BME280;7108;42.684;23.350;2024-02-21T02:30:52;95933.06;;;6.05;100.00
14067;BME280;7108;42.684;23.350;2024-02-21T02:33:18;95931.81;;;6.02;100.00
14067;BME280;7108;42.684;23.350;2024-02-21T02:35:44;95916.69;;;5.98;100.00
14067;BME280;7108;42.684;23.350;2024-02-21T02:38:09;95918.44;;;6.11;100.00
14067;BME280;7108;42.684;23.350;2024-02-21T02:40:38;95886.81;;;6.04;100.00
14067;BME280;7108;42.684;23.350;2024-02-21T02:43:03;95927.44;;;6.32;100.00
14067;BME280;7108;42.684;23.350;2024-02-21T02:45:29;95966.38;;;6.54;100.00
14067;BME280;7108;42.684;23.350;2024-02-21T02:47:56;95967.13;;;6.47;100.00
14067;BME280;7108;42.684;23.350;2024-02-21T02:50:23;95972.34;;;6.51;100.00
14067;BME280;7108;42.684;23.350;2024-02-21T02:52:48;95925.72;;;6.27;100.00
14067;BME280;7108;42.684;23.350;2024-02-21T02:55:14;95904.09;;;5.98;100.00
14067;BME280;7108;42.684;23.350;2024-02-21T02:57:42;95983.50;;;6.37;100.00
14067;BME280;7108;42.684;23.350;2024-02-21T03:00:09;95888.69;;;5.87;100.00
14067;BME280;7108;42.684;23.350;2024-02-21T03:02:39;95916.88;;;6.10;100.00
14067;BME280;7108;42.684;23.350;2024-02-21T03:05:12;95946.97;;;6.24;100.00
14067;BME280;7108;42.684;23.350;2024-02-21T03:07:41;95961.94;;;6.25;100.00
14067;BME280;7108;42.684;23.350;2024-02-21T03:10:07;95980.78;;;6.28;100.00
14067;BME280;7108;42.684;23.350;2024-02-21T03:12:32;95959.53;;;6.23;100.00
14067;BME280;7108;42.684;23.350;2024-02-21T03:14:58;95942.72;;;6.23;100.00
14067;BME280;7108;42.684;23.350;2024-02-21T03:17:24;95978.47;;;6.35;100.00
14067;BME280;7108;42.684;23.350;2024-02-21T03:19:50;95975.47;;;6.37;100.00
14067;BME280;7108;42.684;23.350;2024-02-21T03:22:16;95969.31;;;6.28;100.00
14067;BME280;7108;42.684;23.350;2024-02-21T03:24:42;95957.97;;;6.31;100.00
14067;BME280;7108;42.684;23.350;2024-02-21T03:27:07;95975.28;;;6.33;100.00
14067;BME280;7108;42.684;23.350;2024-02-21T03:29:33;95977.03;;;6.38;100.00
14067;BME280;7108;42.684;23.350;2024-02-21T03:31:59;95984.75;;;6.39;100.00
14067;BME280;7108;42.684;23.350;2024-02-21T03:34:24;95980.03;;;6.36;100.00
14067;BME280;7108;42.684;23.350;2024-02-21T03:36:49;95959.53;;;6.23;100.00
14067;BME280;7108;42.684;23.350;2024-02-21T03:39:15;95972.00;;;6.28;100.00
14067;BME280;7108;42.684;23.350;2024-02-21T03:41:40;95980.03;;;6.36;100.00
14067;BME280;7108;42.684;23.350;2024-02-21T03:44:06;95993.75;;;6.35;100.00
14067;BME280;7108;42.684;23.350;2024-02-21T03:46:31;95978.59;;;6.30;100.00
14067;BME280;7108;42.684;23.350;2024-02-21T03:48:57;96001.63;;;6.48;100.00
14067;BME280;7108;42.684;23.350;2024-02-21T03:51:22;95986.78;;;6.25;100.00
14067;BME280;7108;42.684;23.350;2024-02-21T03:53:48;95952.59;;;6.05;100.00
14067;BME280;7108;42.684;23.350;2024-02-21T03:56:13;95992.00;;;6.30;100.00
14067;BME280;7108;42.684;23.350;2024-02-21T03:58:39;95990.75;;;6.36;100.00
14067;BME280;7108;42.684;23.350;2024-02-21T04:01:04;95998.75;;;6.28;100.00
14067;BME280;7108;42.684;23.350;2024-02-21T04:03:30;95966.78;;;6.14;100.00
14067;BME280;7108;42.684;23.350;2024-02-21T04:05:56;95970.22;;;6.15;100.00
14067;BME280;7108;42.684;23.350;2024-02-21T04:08:22;96002.88;;;6.34;100.00
14067;BME280;7108;42.684;23.350;2024-02-21T04:10:48;95985.38;;;6.28;100.00
14067;BME280;7108;42.684;23.350;2024-02-21T04:13:13;95984.25;;;6.20;100.00
14067;BME280;7108;42.684;23.350;2024-02-21T04:15:39;95987.72;;;6.21;100.00
14067;BME280;7108;42.684;23.350;2024-02-21T04:18:04;95961.34;;;5.89;100.00
14067;BME280;7108;42.684;23.350;2024-02-21T04:20:30;95968.47;;;6.02;100.00
14067;BME280;7108;42.684;23.350;2024-02-21T04:22:56;95995.28;;;6.19;100.00
14067;BME280;7108;42.684;23.350;2024-02-21T04:25:24;95981.75;;;6.24;100.00
14067;BME280;7108;42.684;23.350;2024-02-21T04:27:50;95993.56;;;6.31;100.00
14067;BME280;7108;42.684;23.350;2024-02-21T04:30:15;95966.75;;;6.06;100.00
14067;BME280;7108;42.684;23.350;2024-02-21T04:32:41;95996.06;;;6.28;100.00
14067;BME280;7108;42.684;23.350;2024-02-21T04:35:07;95966.44;;;6.16;100.00
14067;BME280;7108;42.684;23.350;2024-02-21T04:37:33;95979.25;;;6.27;100.00
14067;BME280;7108;42.684;23.350;2024-02-21T04:39:58;95991.22;;;6.30;100.00
14067;BME280;7108;42.684;23.350;2024-02-21T04:42:24;95971.53;;;6.34;100.00
14067;BME280;7108;42.684;23.350;2024-02-21T04:44:49;95975.94;;;6.30;100.00
14067;BME280;7108;42.684;23.350;2024-02-21T04:47:15;95994.19;;;6.28;100.00
14067;BME280;7108;42.684;23.350;2024-02-21T04:49:40;95975.44;;;6.28;100.00
14067;BME280;7108;42.684;23.350;2024-02-21T04:52:06;95992.63;;;6.36;100.00
14067;BME280;7108;42.684;23.350;2024-02-21T04:54:31;95986.16;;;6.28;100.00
14067;BME280;7108;42.684;23.350;2024-02-21T04:56:57;95983.94;;;6.22;100.00
14067;BME280;7108;42.684;23.350;2024-02-21T04:59:22;95993.19;;;6.16;100.00
14067;BME280;7108;42.684;23.350;2024-02-21T05:01:48;95990.53;;;6.16;100.00
14067;BME280;7108;42.684;23.350;2024-02-21T05:04:16;95984.09;;;6.25;100.00
14067;BME280;7108;42.684;23.350;2024-02-21T05:06:41;95978.72;;;6.17;100.00
14067;BME280;7108;42.684;23.350;2024-02-21T05:09:08;95985.34;;;6.19;100.00
14067;BME280;7108;42.684;23.350;2024-02-21T05:11:34;95992.31;;;6.37;100.00
14067;BME280;7108;42.684;23.350;2024-02-21T05:14:00;95966.78;;;6.14;100.00
14067;BME280;7108;42.684;23.350;2024-02-21T05:16:25;96007.44;;;6.42;100.00
14067;BME280;7108;42.684;23.350;2024-02-21T05:18:51;96007.56;;;6.37;100.00
14067;BME280;7108;42.684;23.350;2024-02-21T05:21:16;95983.19;;;6.30;100.00
14067;BME280;7108;42.684;23.350;2024-02-21T05:23:41;96001.31;;;6.50;100.00
14067;BME280;7108;42.684;23.350;2024-02-21T05:26:07;96006.38;;;6.59;100.00
14067;BME280;7108;42.684;23.350;2024-02-21T05:28:33;95999.44;;;6.67;100.00
14067;BME280;7108;42.684;23.350;2024-02-21T05:30:58;96008.91;;;6.81;100.00
14067;BME280;7108;42.684;23.350;2024-02-21T05:33:24;95994.09;;;6.75;100.00
14067;BME280;7108;42.684;23.350;2024-02-21T05:35:50;96001.19;;;6.71;100.00
14067;BME280;7108;42.684;23.350;2024-02-21T05:38:16;95987.63;;;6.68;100.00
14067;BME280;7108;42.684;23.350;2024-02-21T05:40:41;96006.25;;;6.81;100.00
14067;BME280;7108;42.684;23.350;2024-02-21T05:43:07;96004.03;;;6.92;100.00
14067;BME280;7108;42.684;23.350;2024-02-21T05:45:33;96005.59;;;6.93;100.00
14067;BME280;7108;42.684;23.350;2024-02-21T05:47:59;95999.59;;;6.96;100.00
14067;BME280;7108;42.684;23.350;2024-02-21T05:50:25;96014.09;;;7.03;100.00
14067;BME280;7108;42.684;23.350;2024-02-21T05:52:52;96002.28;;;6.87;100.00
14067;BME280;7108;42.684;23.350;2024-02-21T05:55:18;96009.84;;;6.77;100.00
14067;BME280;7108;42.684;23.350;2024-02-21T05:57:43;96001.50;;;6.78;100.00
14067;BME280;7108;42.684;23.350;2024-02-21T06:00:09;96017.09;;;6.85;100.00
14067;BME280;7108;42.684;23.350;2024-02-21T06:02:34;96020.56;;;6.77;100.00
14067;BME280;7108;42.684;23.350;2024-02-21T06:04:59;96002.13;;;6.67;100.00
14067;BME280;7108;42.684;23.350;2024-02-21T06:07:25;96007.31;;;6.72;100.00
14067;BME280;7108;42.684;23.350;2024-02-21T06:09:50;96031.44;;;6.89;100.00
14067;BME280;7108;42.684;23.350;2024-02-21T06:12:16;96018.34;;;6.70;100.00
14067;BME280;7108;42.684;23.350;2024-02-21T06:14:41;96043.06;;;6.76;100.00
14067;BME280;7108;42.684;23.350;2024-02-21T06:17:06;96034.72;;;6.69;100.00
14067;BME280;7108;42.684;23.350;2024-02-21T06:19:32;96037.72;;;6.67;100.00
14067;BME280;7108;42.684;23.350;2024-02-21T06:21:57;96040.06;;;6.69;100.00
14067;BME280;7108;42.684;23.350;2024-02-21T06:24:23;96017.56;;;6.53;100.00
14067;BME280;7108;42.684;23.350;2024-02-21T06:26:48;96027.97;;;6.71;100.00
14067;BME280;7108;42.684;23.350;2024-02-21T06:29:14;96018.34;;;6.70;100.00
14067;BME280;7108;42.684;23.350;2024-02-21T06:31:40;96035.69;;;6.73;100.00
14067;BME280;7108;42.684;23.350;2024-02-21T06:34:05;96036.13;;;6.75;100.00
14067;BME280;7108;42.684;23.350;2024-02-21T06:36:31;96028.44;;;6.90;100.00
14067;BME280;7108;42.684;23.350;2024-02-21T06:38:56;96033.34;;;6.97;100.00
14067;BME280;7108;42.684;23.350;2024-02-21T06:41:22;96044.53;;;6.99;100.00
14067;BME280;7108;42.684;23.350;2024-02-21T06:43:48;96046.25;;;7.03;100.00
14067;BME280;7108;42.684;23.350;2024-02-21T06:46:24;96053.34;;;7.16;100.00
14067;BME280;7108;42.684;23.350;2024-02-21T06:48:50;96038.84;;;7.09;100.00
14067;BME280;7108;42.684;23.350;2024-02-21T06:51:16;96046.91;;;7.17;100.00
14067;BME280;7108;42.684;23.350;2024-02-21T06:53:41;96049.41;;;7.30;100.00
14067;BME280;7108;42.684;23.350;2024-02-21T06:56:07;96054.75;;;7.39;100.00
14067;BME280;7108;42.684;23.350;2024-02-21T06:58:33;96056.03;;;7.33;100.00
14067;BME280;7108;42.684;23.350;2024-02-21T07:00:58;96031.09;;;7.15;100.00
14067;BME280;7108;42.684;23.350;2024-02-21T07:03:23;96027.97;;;7.14;100.00
14067;BME280;7108;42.684;23.350;2024-02-21T07:05:49;96054.91;;;7.34;100.00
14067;BME280;7108;42.684;23.350;2024-02-21T07:08:15;96048.75;;;7.42;100.00
14067;BME280;7108;42.684;23.350;2024-02-21T07:10:40;96045.28;;;7.50;100.00
14067;BME280;7108;42.684;23.350;2024-02-21T07:13:06;96060.72;;;7.61;100.00
14067;BME280;7108;42.684;23.350;2024-02-21T07:15:31;96040.53;;;7.55;100.00
14067;BME280;7108;42.684;23.350;2024-02-21T07:17:58;96050.81;;;7.45;100.00
14067;BME280;7108;42.684;23.350;2024-02-21T07:20:24;96066.25;;;7.65;100.00
14067;BME280;7108;42.684;23.350;2024-02-21T07:22:50;96036.88;;;7.60;100.00
14067;BME280;7108;42.684;23.350;2024-02-21T07:25:15;96070.28;;;7.87;100.00
14067;BME280;7108;42.684;23.350;2024-02-21T07:27:41;96048.22;;;7.82;100.00
14067;BME280;7108;42.684;23.350;2024-02-21T07:30:07;96052.19;;;7.76;100.00
14067;BME280;7108;42.684;23.350;2024-02-21T07:32:33;96059.56;;;7.79;100.00
14067;BME280;7108;42.684;23.350;2024-02-21T07:34:58;96045.06;;;7.72;100.00
14067;BME280;7108;42.684;23.350;2024-02-21T07:37:23;96064.03;;;7.67;100.00
14067;BME280;7108;42.684;23.350;2024-02-21T07:39:49;96062.00;;;7.55;100.00
14067;BME280;7108;42.684;23.350;2024-02-21T07:42:14;96074.94;;;7.53;100.00
14067;BME280;7108;42.684;23.350;2024-02-21T07:44:40;96061.06;;;7.43;100.00
14067;BME280;7108;42.684;23.350;2024-02-21T07:47:06;96055.06;;;7.37;100.00
14067;BME280;7108;42.684;23.350;2024-02-21T07:49:32;96060.59;;;7.41;100.00
14067;BME280;7108;42.684;23.350;2024-02-21T07:52:00;96053.97;;;7.47;100.00
14067;BME280;7108;42.684;23.350;2024-02-21T07:54:25;96042.75;;;7.45;100.00
14067;BME280;7108;42.684;23.350;2024-02-21T07:56:51;96056.31;;;7.57;100.00
14067;BME280;7108;42.684;23.350;2024-02-21T07:59:16;96046.66;;;7.64;100.00
14067;BME280;7108;42.684;23.350;2024-02-21T08:01:42;96053.13;;;7.72;100.00
14067;BME280;7108;42.684;23.350;2024-02-21T08:04:09;96049.63;;;7.88;100.00
14067;BME280;7108;42.684;23.350;2024-02-21T08:06:35;96052.91;;;7.93;100.00
14067;BME280;7108;42.684;23.350;2024-02-21T08:09:00;96046.91;;;7.96;100.00
14067;BME280;7108;42.684;23.350;2024-02-21T08:11:26;96023.72;;;7.92;100.00
14067;BME280;7108;42.684;23.350;2024-02-21T08:13:51;96045.44;;;8.07;100.00
14067;BME280;7108;42.684;23.350;2024-02-21T08:16:17;96040.88;;;8.16;100.00
14067;BME280;7108;42.684;23.350;2024-02-21T08:18:44;96057.88;;;8.29;100.00
14067;BME280;7108;42.684;23.350;2024-02-21T08:21:09;96050.75;;;8.33;100.00
14067;BME280;7108;42.684;23.350;2024-02-21T08:23:35;96017.78;;;8.24;100.00
14067;BME280;7108;42.684;23.350;2024-02-21T08:26:03;96052.50;;;8.57;100.00
14067;BME280;7108;42.684;23.350;2024-02-21T08:28:29;96033.31;;;8.47;100.00
14067;BME280;7108;42.684;23.350;2024-02-21T08:30:54;96048.53;;;8.63;100.00
14067;BME280;7108;42.684;23.350;2024-02-21T08:33:19;96042.41;;;8.54;100.00
14067;BME280;7108;42.684;23.350;2024-02-21T08:35:49;96028.94;;;8.63;100.00
14067;BME280;7108;42.684;23.350;2024-02-21T08:38:15;96034.19;;;8.59;100.00
14067;BME280;7108;42.684;23.350;2024-02-21T08:40:40;96039.56;;;8.80;100.00
14067;BME280;7108;42.684;23.350;2024-02-21T08:43:06;96040.31;;;8.89;100.00
14067;BME280;7108;42.684;23.350;2024-02-21T08:45:31;96033.69;;;8.86;100.00
14067;BME280;7108;42.684;23.350;2024-02-21T08:47:56;96042.00;;;8.93;100.00
14067;BME280;7108;42.684;23.350;2024-02-21T08:50:22;96036.56;;;8.81;100.00
14067;BME280;7108;42.684;23.350;2024-02-21T08:52:47;96029.63;;;8.80;100.00
14067;BME280;7108;42.684;23.350;2024-02-21T08:55:13;96045.38;;;8.61;100.00
14067;BME280;7108;42.684;23.350;2024-02-21T08:57:38;96044.22;;;8.71;100.00
14067;BME280;7108;42.684;23.350;2024-02-21T09:00:07;96044.63;;;8.81;100.00
14067;BME280;7108;42.684;23.350;2024-02-21T09:02:41;96040.31;;;8.89;100.00
14067;BME280;7108;42.684;23.350;2024-02-21T09:05:13;96025.94;;;8.85;100.00
14067;BME280;7108;42.684;23.350;2024-02-21T09:07:38;96054.72;;;8.84;100.00
14067;BME280;7108;42.684;23.350;2024-02-21T09:10:04;96041.00;;;8.77;100.00
14067;BME280;7108;42.684;23.350;2024-02-21T09:12:29;96019.94;;;8.59;100.00
14067;BME280;7108;42.684;23.350;2024-02-21T09:14:55;96033.78;;;8.69;100.00
14067;BME280;7108;42.684;23.350;2024-02-21T09:17:21;96034.53;;;8.78;100.00
14067;BME280;7108;42.684;23.350;2024-02-21T09:19:47;96041.88;;;8.90;100.00
14067;BME280;7108;42.684;23.350;2024-02-21T09:22:13;96037.88;;;8.96;100.00
14067;BME280;7108;42.684;23.350;2024-02-21T09:24:38;96039.94;;;8.49;100.00
14067;BME280;7108;42.684;23.350;2024-02-21T09:27:04;96050.97;;;8.48;100.00
14067;BME280;7108;42.684;23.350;2024-02-21T09:29:31;96046.78;;;8.39;100.00
14067;BME280;7108;42.684;23.350;2024-02-21T09:31:58;96041.06;;;8.40;100.00
14067;BME280;7108;42.684;23.350;2024-02-21T09:34:24;96021.59;;;8.43;100.00
14067;BME280;7108;42.684;23.350;2024-02-21T09:36:49;96030.69;;;8.30;100.00
14067;BME280;7108;42.684;23.350;2024-02-21T09:39:14;96046.44;;;8.40;100.00
14067;BME280;7108;42.684;23.350;2024-02-21T09:41:45;96042.34;;;8.34;100.00
14067;BME280;7108;42.684;23.350;2024-02-21T09:44:13;96049.16;;;8.32;100.00
14067;BME280;7108;42.684;23.350;2024-02-21T09:51:53;96055.84;;;8.54;100.00
14067;BME280;7108;42.684;23.350;2024-02-21T09:54:20;96039.06;;;8.57;100.00
14067;BME280;7108;42.684;23.350;2024-02-21T09:56:46;96037.06;;;8.75;100.00
14067;BME280;7108;42.684;23.350;2024-02-21T09:59:14;96030.00;;;8.70;100.00
14067;BME280;7108;42.684;23.350;2024-02-21T10:01:42;96032.53;;;8.67;100.00
14067;BME280;7108;42.684;23.350;2024-02-21T10:04:07;96031.16;;;8.61;100.00
14067;BME280;7108;42.684;23.350;2024-02-21T10:06:33;95995.19;;;8.53;100.00
14067;BME280;7108;42.684;23.350;2024-02-21T10:08:59;96009.44;;;8.74;100.00
14067;BME280;7108;42.684;23.350;2024-02-21T10:11:25;96016.84;;;8.98;100.00
14067;BME280;7108;42.684;23.350;2024-02-21T10:14:02;96012.97;;;9.07;100.00
14067;BME280;7108;42.684;23.350;2024-02-21T10:16:28;96016.44;;;9.08;100.00
14067;BME280;7108;42.684;23.350;2024-02-21T10:18:54;96002.22;;;9.07;100.00
14067;BME280;7108;42.684;23.350;2024-02-21T10:21:19;96005.22;;;9.06;100.00
14067;BME280;7108;42.684;23.350;2024-02-21T10:23:48;96009.69;;;9.22;100.00
14067;BME280;7108;42.684;23.350;2024-02-21T10:26:15;95996.19;;;9.30;100.00
14067;BME280;7108;42.684;23.350;2024-02-21T10:28:43;95994.19;;;9.39;100.00
14067;BME280;7108;42.684;23.350;2024-02-21T10:31:11;95993.34;;;9.27;100.00
14067;BME280;7108;42.684;23.350;2024-02-21T10:33:39;95987.44;;;9.33;100.00
14067;BME280;7108;42.684;23.350;2024-02-21T10:36:09;95985.53;;;9.34;100.00
14067;BME280;7108;42.684;23.350;2024-02-21T10:38:38;95970.97;;;9.35;100.00
14067;BME280;7108;42.684;23.350;2024-02-21T10:41:06;95969.56;;;9.49;100.00
14067;BME280;7108;42.684;23.350;2024-02-21T10:43:38;95950.31;;;9.59;100.00
14067;BME280;7108;42.684;23.350;2024-02-21T10:46:08;95952.56;;;9.69;100.00
14067;BME280;7108;42.684;23.350;2024-02-21T10:48:45;95949.91;;;9.81;100.00
14067;BME280;7108;42.684;23.350;2024-02-21T10:51:20;95935.25;;;10.02;100.00
14067;BME280;7108;42.684;23.350;2024-02-21T10:58:53;95923.72;;;10.65;100.00
14067;BME280;7108;42.684;23.350;2024-02-21T11:01:19;95906.78;;;10.64;100.00
14067;BME280;7108;42.684;23.350;2024-02-21T11:03:46;95892.75;;;10.59;100.00
14067;BME280;7108;42.684;23.350;2024-02-21T11:06:13;95905.84;;;10.72;100.00
14067;BME280;7108;42.684;23.350;2024-02-21T11:08:40;95892.25;;;10.69;100.00
14067;BME280;7108;42.684;23.350;2024-02-21T11:11:06;95895.03;;;10.84;100.00
14067;BME280;7108;42.684;23.350;2024-02-21T11:13:37;95903.84;;;10.97;100.00
14067;BME280;7108;42.684;23.350;2024-02-21T11:16:10;95905.28;;;11.06;100.00
14067;BME280;7108;42.684;23.350;2024-02-21T11:18:37;95895.91;;;10.88;100.00
14067;BME280;7108;42.684;23.350;2024-02-21T11:21:03;95907.38;;;10.85;96.40
14067;BME280;7108;42.684;23.350;2024-02-21T11:23:31;95901.63;;;10.99;99.89
14067;BME280;7108;42.684;23.350;2024-02-21T11:26:10;95878.66;;;11.05;95.74
14067;BME280;7108;42.684;23.350;2024-02-21T11:28:36;95899.25;;;11.24;94.61
14067;BME280;7108;42.684;23.350;2024-02-21T11:31:11;95884.34;;;11.15;92.87
14067;BME280;7108;42.684;23.350;2024-02-21T11:33:40;95881.13;;;11.25;93.00
14067;BME280;7108;42.684;23.350;2024-02-21T11:36:09;95873.31;;;10.93;90.06
14067;BME280;7108;42.684;23.350;2024-02-21T11:38:35;95883.31;;;10.92;91.24
14067;BME280;7108;42.684;23.350;2024-02-21T11:41:01;95865.91;;;10.62;94.72
14067;BME280;7108;42.684;23.350;2024-02-21T11:43:26;95869.94;;;10.68;97.83
14067;BME280;7108;42.684;23.350;2024-02-21T11:46:01;95884.09;;;10.65;99.64
14067;BME280;7108;42.684;23.350;2024-02-21T11:48:29;95869.78;;;10.49;100.00
14067;BME280;7108;42.684;23.350;2024-02-21T11:50:55;95873.22;;;10.62;100.00
14067;BME280;7108;42.684;23.350;2024-02-21T11:53:21;95870.16;;;10.36;100.00
14067;BME280;7108;42.684;23.350;2024-02-21T11:55:46;95866.53;;;10.32;100.00
14067;BME280;7108;42.684;23.350;2024-02-21T11:58:11;95857.69;;;10.32;100.00
14067;BME280;7108;42.684;23.350;2024-02-21T12:00:37;95874.38;;;10.37;100.00
14067;BME280;7108;42.684;23.350;2024-02-21T12:03:04;95869.44;;;10.39;100.00
14067;BME280;7108;42.684;23.350;2024-02-21T12:05:29;95855.63;;;10.41;100.00
14067;BME280;7108;42.684;23.350;2024-02-21T12:07:55;95876.19;;;10.45;100.00
14067;BME280;7108;42.684;23.350;2024-02-21T12:10:21;95857.56;;;10.40;100.00
14067;BME280;7108;42.684;23.350;2024-02-21T12:12:46;95868.97;;;10.49;100.00
14067;BME280;7108;42.684;23.350;2024-02-21T12:15:11;95865.63;;;10.40;100.00
14067;BME280;7108;42.684;23.350;2024-02-21T12:17:37;95861.72;;;10.26;100.00
14067;BME280;7108;42.684;23.350;2024-02-21T12:20:05;95859.75;;;10.11;100.00
14067;BME280;7108;42.684;23.350;2024-02-21T12:22:37;95853.59;;;10.10;100.00
14067;BME280;7108;42.684;23.350;2024-02-21T12:25:23;95857.81;;;10.11;100.00
14067;BME280;7108;42.684;23.350;2024-02-21T12:27:51;95860.44;;;10.08;100.00
14067;BME280;7108;42.684;23.350;2024-02-21T12:30:17;95828.56;;;9.74;100.00
14067;BME280;7108;42.684;23.350;2024-02-21T12:32:42;95837.63;;;9.70;100.00
14067;BME280;7108;42.684;23.350;2024-02-21T12:35:08;95851.56;;;9.83;100.00
14067;BME280;7108;42.684;23.350;2024-02-21T12:37:34;95853.78;;;9.93;100.00
14067;BME280;7108;42.684;23.350;2024-02-21T12:39:59;95842.38;;;9.96;100.00
14067;BME280;7108;42.684;23.350;2024-02-21T12:42:25;95827.63;;;9.94;100.00
14067;BME280;7108;42.684;23.350;2024-02-21T12:44:52;95830.00;;;9.95;100.00
14067;BME280;7108;42.684;23.350;2024-02-21T12:47:18;95848.09;;;10.07;100.00
14067;BME280;7108;42.684;23.350;2024-02-21T12:49:45;95832.81;;;9.99;100.00
14067;BME280;7108;42.684;23.350;2024-02-21T12:52:11;95839.66;;;10.08;100.00
14067;BME280;7108;42.684;23.350;2024-02-21T12:54:36;95825.66;;;10.03;100.00
14067;BME280;7108;42.684;23.350;2024-02-21T12:57:02;95840.78;;;9.83;100.00
14067;BME280;7108;42.684;23.350;2024-02-21T12:59:28;95822.59;;;9.80;100.00
14067;BME280;7108;42.684;23.350;2024-02-21T13:01:54;95831.25;;;9.74;100.00
14067;BME280;7108;42.684;23.350;2024-02-21T13:04:19;95829.25;;;9.71;100.00
14067;BME280;7108;42.684;23.350;2024-02-21T13:06:46;95838.97;;;9.76;100.00